PWSweather.com
Personal Weather Stations
Station Observations
PALMY
Palmerston NorthNZ 4410

Palmerston NorthNZ 4410

Lat: -40.349104, Lon: 175.615094

Elevation: 75.4

Station Type: WeatherDuino Pro2

http://palmyweather.co.nz

High Low Average
Temperature 79.7°F26.5°F 52.8°F11.6°F 62.7°F17.1°F
Dew Point 61.6°F16.4°F 52.3°F11.3°F 56.4°F13.6°F
Winds 5.4 mph -8.7 mph - 0.4 mph 0.6 mph 2.4 mph 3.9 mph
Wind Gusts 13.9 mph22.4 mph 0.9 mph1.4 mph 5.8 mph9.3 mph
Humidity 98% 49% 82%
Pressure 30.10 in1019.30 in 30.00 in1015.90 in -
Precipitation 0.76 in19.30 in - -
Hour Temp Dew Point Humidity Winds Wind Gusts Pressure Precip Precip Rate Daily Precip Total
12:00 AM 58.2°F14.6°C 56.2°F13.4°C 93% 3.6 mph E5.8 kmh E 6.7 mph10.8 kmh 30.01 in1016.3 mb 0.00 in0.0 mm 0.00 in0.0 mm 0.00 in0.0 mm
12:05 AM 58.2°F14.6°C 56.5°F13.6°C 94% 3.1 mph E5.0 kmh E 6.7 mph10.8 kmh 30.01 in1016.3 mb 0.00 in0.0 mm 0.00 in0.0 mm 0.00 in0.0 mm
12:10 AM 58.1°F14.5°C 56.4°F13.6°C 94% 3.6 mph ESE5.8 kmh ESE 7.6 mph12.2 kmh 30.01 in1016.3 mb 0.00 in0.0 mm 0.00 in0.0 mm 0.00 in0.0 mm
12:15 AM 58.1°F14.5°C 56.1°F13.4°C 93% 3.6 mph ESE5.8 kmh ESE 9.0 mph14.5 kmh 30.01 in1016.3 mb 0.00 in0.0 mm 0.00 in0.0 mm 0.00 in0.0 mm
12:20 AM 58.1°F14.5°C 56.1°F13.4°C 93% 3.6 mph ESE5.8 kmh ESE 9.0 mph14.5 kmh 30.01 in1016.3 mb 0.00 in0.0 mm 0.00 in0.0 mm 0.00 in0.0 mm
12:25 AM 58.1°F14.5°C 56.1°F13.4°C 93% 3.1 mph E5.0 kmh E 7.6 mph12.2 kmh 30.01 in1016.3 mb 0.00 in0.0 mm 0.00 in0.0 mm 0.00 in0.0 mm
12:30 AM 58.1°F14.5°C 56.1°F13.4°C 93% 3.1 mph ESE5.0 kmh ESE 7.6 mph12.2 kmh 30.01 in1016.3 mb 0.00 in0.0 mm 0.00 in0.0 mm 0.00 in0.0 mm
12:35 AM 58.1°F14.5°C 56.1°F13.4°C 93% 3.1 mph ESE5.0 kmh ESE 7.6 mph12.2 kmh 30.01 in1016.3 mb 0.00 in0.0 mm 0.00 in0.0 mm 0.00 in0.0 mm
12:40 AM 58.1°F14.5°C 56.1°F13.4°C 93% 4.0 mph E6.4 kmh E 9.0 mph14.5 kmh 30.00 in1015.9 mb 0.00 in0.0 mm 0.00 in0.0 mm 0.00 in0.0 mm
12:45 AM 58.1°F14.5°C 55.8°F13.2°C 92% 4.5 mph E7.2 kmh E 9.0 mph14.5 kmh 30.00 in1015.9 mb 0.00 in0.0 mm 0.00 in0.0 mm 0.00 in0.0 mm
12:50 AM 58.2°F14.6°C 55.9°F13.3°C 92% 3.6 mph ESE5.8 kmh ESE 7.6 mph12.2 kmh 30.00 in1015.9 mb 0.00 in0.0 mm 0.00 in0.0 mm 0.00 in0.0 mm
12:55 AM 58.2°F14.6°C 55.9°F13.3°C 92% 3.1 mph ESE5.0 kmh ESE 7.6 mph12.2 kmh 30.00 in1015.9 mb 0.00 in0.0 mm 0.00 in0.0 mm 0.00 in0.0 mm
01:00 AM 58.2°F14.6°C 55.9°F13.3°C 92% 2.7 mph E4.3 kmh E 7.6 mph12.2 kmh 30.00 in1015.9 mb 0.00 in0.0 mm 0.00 in0.0 mm 0.00 in0.0 mm
01:05 AM 58.2°F14.6°C 55.9°F13.3°C 92% 1.8 mph ENE2.9 kmh ENE 4.5 mph7.2 kmh 30.01 in1016.3 mb 0.00 in0.0 mm 0.00 in0.0 mm 0.00 in0.0 mm
01:10 AM 58.1°F14.5°C 55.8°F13.2°C 92% 0.9 mph NE1.4 kmh NE 2.2 mph3.5 kmh 30.01 in1016.3 mb 0.00 in0.0 mm 0.00 in0.0 mm 0.00 in0.0 mm
01:15 AM 58.1°F14.5°C 55.8°F13.2°C 92% 0.9 mph E1.4 kmh E 2.2 mph3.5 kmh 30.01 in1016.3 mb 0.00 in0.0 mm 0.00 in0.0 mm 0.00 in0.0 mm
01:20 AM 58.1°F14.5°C 55.8°F13.2°C 92% 0.9 mph ESE1.4 kmh ESE 3.1 mph5.0 kmh 30.01 in1016.3 mb 0.00 in0.0 mm 0.00 in0.0 mm 0.00 in0.0 mm
01:25 AM 58.1°F14.5°C 55.8°F13.2°C 92% 1.8 mph E2.9 kmh E 4.5 mph7.2 kmh 30.00 in1015.9 mb 0.00 in0.0 mm 0.00 in0.0 mm 0.00 in0.0 mm
01:30 AM 58.1°F14.5°C 55.8°F13.2°C 92% 2.7 mph ESE4.3 kmh ESE 4.9 mph7.9 kmh 30.00 in1015.9 mb 0.00 in0.0 mm 0.00 in0.0 mm 0.00 in0.0 mm
01:35 AM 58.1°F14.5°C 55.8°F13.2°C 92% 2.7 mph ESE4.3 kmh ESE 5.4 mph8.7 kmh 30.00 in1015.9 mb 0.00 in0.0 mm 0.00 in0.0 mm 0.00 in0.0 mm
01:40 AM 58.1°F14.5°C 55.8°F13.2°C 92% 3.1 mph E5.0 kmh E 6.7 mph10.8 kmh 30.00 in1015.9 mb 0.00 in0.0 mm 0.00 in0.0 mm 0.00 in0.0 mm
01:45 AM 58.1°F14.5°C 55.8°F13.2°C 92% 3.6 mph E5.8 kmh E 8.1 mph13.0 kmh 30.00 in1015.9 mb 0.00 in0.0 mm 0.00 in0.0 mm 0.00 in0.0 mm
01:50 AM 58.1°F14.5°C 55.8°F13.2°C 92% 3.1 mph E5.0 kmh E 8.1 mph13.0 kmh 30.00 in1015.9 mb 0.00 in0.0 mm 0.00 in0.0 mm 0.00 in0.0 mm
01:55 AM 57.9°F14.4°C 55.6°F13.1°C 92% 3.1 mph E5.0 kmh E 6.7 mph10.8 kmh 30.00 in1015.9 mb 0.00 in0.0 mm 0.00 in0.0 mm 0.00 in0.0 mm
02:00 AM 57.9°F14.4°C 55.6°F13.1°C 92% 3.1 mph E5.0 kmh E 6.7 mph10.8 kmh 30.00 in1015.9 mb 0.00 in0.0 mm 0.00 in0.0 mm 0.00 in0.0 mm
02:05 AM 57.7°F14.3°C 55.4°F13.0°C 92% 3.1 mph E5.0 kmh E 8.1 mph13.0 kmh 30.00 in1015.9 mb 0.00 in0.0 mm 0.00 in0.0 mm 0.00 in0.0 mm
02:10 AM 57.9°F14.4°C 55.3°F12.9°C 91% 3.6 mph E5.8 kmh E 12.1 mph19.5 kmh 30.00 in1015.9 mb 0.00 in0.0 mm 0.00 in0.0 mm 0.00 in0.0 mm
02:15 AM 57.9°F14.4°C 55.3°F12.9°C 91% 4.5 mph E7.2 kmh E 12.1 mph19.5 kmh 30.00 in1015.9 mb 0.00 in0.0 mm 0.00 in0.0 mm 0.00 in0.0 mm
02:20 AM 57.7°F14.3°C 55.1°F12.8°C 91% 4.0 mph E6.4 kmh E 10.3 mph16.6 kmh 30.00 in1015.9 mb 0.00 in0.0 mm 0.00 in0.0 mm 0.00 in0.0 mm
02:25 AM 57.7°F14.3°C 55.4°F13.0°C 92% 3.6 mph E5.8 kmh E 8.1 mph13.0 kmh 30.00 in1015.9 mb 0.00 in0.0 mm 0.00 in0.0 mm 0.00 in0.0 mm
02:30 AM 57.7°F14.3°C 55.4°F13.0°C 92% 3.6 mph E5.8 kmh E 8.1 mph13.0 kmh 30.00 in1015.9 mb 0.00 in0.0 mm 0.00 in0.0 mm 0.00 in0.0 mm
02:35 AM 57.5°F14.2°C 55.2°F12.9°C 92% 3.1 mph E5.0 kmh E 6.7 mph10.8 kmh 30.00 in1015.9 mb 0.00 in0.0 mm 0.00 in0.0 mm 0.00 in0.0 mm
02:40 AM 57.5°F14.2°C 55.2°F12.9°C 92% 2.7 mph E4.3 kmh E 5.8 mph9.3 kmh 30.00 in1015.9 mb 0.00 in0.0 mm 0.00 in0.0 mm 0.00 in0.0 mm
02:45 AM 57.5°F14.2°C 55.2°F12.9°C 92% 2.2 mph E3.5 kmh E 5.4 mph8.7 kmh 30.00 in1015.9 mb 0.00 in0.0 mm 0.00 in0.0 mm 0.00 in0.0 mm
02:50 AM 57.3°F14.1°C 55.0°F12.8°C 92% 1.8 mph E2.9 kmh E 5.4 mph8.7 kmh 30.00 in1015.9 mb 0.00 in0.0 mm 0.00 in0.0 mm 0.00 in0.0 mm
02:55 AM 57.3°F14.1°C 55.0°F12.8°C 92% 1.8 mph E2.9 kmh E 4.5 mph7.2 kmh 30.00 in1015.9 mb 0.00 in0.0 mm 0.00 in0.0 mm 0.00 in0.0 mm
03:00 AM 57.3°F14.1°C 55.0°F12.8°C 92% 1.8 mph E2.9 kmh E 4.5 mph7.2 kmh 30.00 in1015.9 mb 0.00 in0.0 mm 0.00 in0.0 mm 0.00 in0.0 mm
03:05 AM 57.3°F14.1°C 55.0°F12.8°C 92% 1.8 mph ENE2.9 kmh ENE 4.0 mph6.4 kmh 30.00 in1015.9 mb 0.00 in0.0 mm 0.00 in0.0 mm 0.00 in0.0 mm
03:10 AM 57.3°F14.1°C 55.0°F12.8°C 92% 1.8 mph ENE2.9 kmh ENE 4.5 mph7.2 kmh 30.00 in1015.9 mb 0.00 in0.0 mm 0.00 in0.0 mm 0.00 in0.0 mm
03:15 AM 57.3°F14.1°C 55.0°F12.8°C 92% 2.7 mph E4.3 kmh E 5.8 mph9.3 kmh 30.01 in1016.3 mb 0.00 in0.0 mm 0.00 in0.0 mm 0.00 in0.0 mm
03:20 AM 57.5°F14.2°C 55.2°F12.9°C 92% 3.1 mph E5.0 kmh E 5.8 mph9.3 kmh 30.01 in1016.3 mb 0.00 in0.0 mm 0.00 in0.0 mm 0.00 in0.0 mm
03:25 AM 57.5°F14.2°C 54.9°F12.7°C 91% 3.1 mph E5.0 kmh E 6.3 mph10.1 kmh 30.01 in1016.3 mb 0.00 in0.0 mm 0.00 in0.0 mm 0.00 in0.0 mm
03:30 AM 57.7°F14.3°C 55.1°F12.8°C 91% 3.1 mph E5.0 kmh E 8.1 mph13.0 kmh 30.01 in1016.3 mb 0.00 in0.0 mm 0.00 in0.0 mm 0.00 in0.0 mm
03:35 AM 57.5°F14.2°C 54.9°F12.7°C 91% 3.6 mph E5.8 kmh E 8.1 mph13.0 kmh 30.01 in1016.3 mb 0.00 in0.0 mm 0.00 in0.0 mm 0.00 in0.0 mm
03:40 AM 57.5°F14.2°C 54.9°F12.7°C 91% 3.6 mph E5.8 kmh E 6.7 mph10.8 kmh 30.01 in1016.3 mb 0.00 in0.0 mm 0.00 in0.0 mm 0.00 in0.0 mm
03:45 AM 57.5°F14.2°C 55.2°F12.9°C 92% 3.1 mph E5.0 kmh E 6.7 mph10.8 kmh 30.01 in1016.3 mb 0.00 in0.0 mm 0.00 in0.0 mm 0.00 in0.0 mm
03:50 AM 57.3°F14.1°C 55.0°F12.8°C 92% 2.7 mph E4.3 kmh E 5.8 mph9.3 kmh 30.01 in1016.3 mb 0.00 in0.0 mm 0.00 in0.0 mm 0.00 in0.0 mm
03:55 AM 57.3°F14.1°C 55.0°F12.8°C 92% 2.7 mph ESE4.3 kmh ESE 5.8 mph9.3 kmh 30.01 in1016.3 mb 0.00 in0.0 mm 0.00 in0.0 mm 0.00 in0.0 mm
04:00 AM 57.3°F14.1°C 55.0°F12.8°C 92% 2.7 mph E4.3 kmh E 4.5 mph7.2 kmh 30.01 in1016.3 mb 0.00 in0.0 mm 0.00 in0.0 mm 0.00 in0.0 mm
04:05 AM 57.2°F14.0°C 54.9°F12.7°C 92% 2.2 mph E3.5 kmh E 4.5 mph7.2 kmh 30.01 in1016.3 mb 0.00 in0.0 mm 0.00 in0.0 mm 0.00 in0.0 mm
04:10 AM 57.2°F14.0°C 54.9°F12.7°C 92% 2.2 mph ESE3.5 kmh ESE 4.5 mph7.2 kmh 30.02 in1016.6 mb 0.00 in0.0 mm 0.00 in0.0 mm 0.00 in0.0 mm
04:15 AM 57.2°F14.0°C 55.2°F12.9°C 93% 2.2 mph ESE3.5 kmh ESE 6.3 mph10.1 kmh 30.01 in1016.3 mb 0.00 in0.0 mm 0.00 in0.0 mm 0.00 in0.0 mm
04:20 AM 57.2°F14.0°C 55.2°F12.9°C 93% 2.7 mph E4.3 kmh E 6.3 mph10.1 kmh 30.02 in1016.6 mb 0.00 in0.0 mm 0.00 in0.0 mm 0.00 in0.0 mm
04:25 AM 57.2°F14.0°C 55.2°F12.9°C 93% 2.2 mph SE3.5 kmh SE 4.9 mph7.9 kmh 30.02 in1016.6 mb 0.00 in0.0 mm 0.00 in0.0 mm 0.00 in0.0 mm
04:30 AM 57.2°F14.0°C 55.2°F12.9°C 93% 2.2 mph SE3.5 kmh SE 5.8 mph9.3 kmh 30.02 in1016.6 mb 0.00 in0.0 mm 0.00 in0.0 mm 0.00 in0.0 mm
04:35 AM 57.2°F14.0°C 55.2°F12.9°C 93% 2.7 mph E4.3 kmh E 6.7 mph10.8 kmh 30.02 in1016.6 mb 0.00 in0.0 mm 0.00 in0.0 mm 0.00 in0.0 mm
04:40 AM 57.2°F14.0°C 55.2°F12.9°C 93% 3.1 mph E5.0 kmh E 6.7 mph10.8 kmh 30.02 in1016.6 mb 0.00 in0.0 mm 0.00 in0.0 mm 0.00 in0.0 mm
04:45 AM 57.3°F14.1°C 55.3°F12.9°C 93% 3.1 mph E5.0 kmh E 7.6 mph12.2 kmh 30.02 in1016.6 mb 0.00 in0.0 mm 0.00 in0.0 mm 0.00 in0.0 mm
04:50 AM 57.3°F14.1°C 55.3°F12.9°C 93% 3.1 mph ESE5.0 kmh ESE 7.6 mph12.2 kmh 30.02 in1016.6 mb 0.00 in0.0 mm 0.00 in0.0 mm 0.00 in0.0 mm
04:55 AM 57.3°F14.1°C 55.3°F12.9°C 93% 3.6 mph E5.8 kmh E 7.6 mph12.2 kmh 30.02 in1016.6 mb 0.00 in0.0 mm 0.00 in0.0 mm 0.00 in0.0 mm
05:00 AM 57.5°F14.2°C 55.2°F12.9°C 92% 3.1 mph E5.0 kmh E 6.7 mph10.8 kmh 30.02 in1016.6 mb 0.00 in0.0 mm 0.00 in0.0 mm 0.00 in0.0 mm
05:05 AM 57.5°F14.2°C 55.2°F12.9°C 92% 2.7 mph E4.3 kmh E 7.2 mph11.6 kmh 30.03 in1016.9 mb 0.00 in0.0 mm 0.00 in0.0 mm 0.00 in0.0 mm
05:10 AM 57.5°F14.2°C 55.2°F12.9°C 92% 2.7 mph E4.3 kmh E 7.2 mph11.6 kmh 30.03 in1016.9 mb 0.00 in0.0 mm 0.00 in0.0 mm 0.00 in0.0 mm
05:15 AM 57.5°F14.2°C 55.2°F12.9°C 92% 2.7 mph E4.3 kmh E 6.7 mph10.8 kmh 30.03 in1016.9 mb 0.00 in0.0 mm 0.00 in0.0 mm 0.00 in0.0 mm
05:20 AM 57.5°F14.2°C 55.2°F12.9°C 92% 2.7 mph E4.3 kmh E 5.8 mph9.3 kmh 30.03 in1016.9 mb 0.00 in0.0 mm 0.00 in0.0 mm 0.00 in0.0 mm
05:25 AM 57.7°F14.3°C 55.4°F13.0°C 92% 2.7 mph E4.3 kmh E 5.4 mph8.7 kmh 30.03 in1016.9 mb 0.00 in0.0 mm 0.00 in0.0 mm 0.00 in0.0 mm
05:30 AM 57.9°F14.4°C 55.6°F13.1°C 92% 1.8 mph ENE2.9 kmh ENE 4.9 mph7.9 kmh 30.04 in1017.3 mb 0.00 in0.0 mm 0.00 in0.0 mm 0.00 in0.0 mm
05:35 AM 58.1°F14.5°C 55.8°F13.2°C 92% 1.3 mph ENE2.1 kmh ENE 3.6 mph5.8 kmh 30.04 in1017.3 mb 0.00 in0.0 mm 0.00 in0.0 mm 0.00 in0.0 mm
05:40 AM 58.4°F14.7°C 56.1°F13.4°C 92% 0.9 mph NE1.4 kmh NE 2.2 mph3.5 kmh 30.04 in1017.3 mb 0.00 in0.0 mm 0.00 in0.0 mm 0.00 in0.0 mm
05:45 AM 58.8°F14.9°C 56.5°F13.6°C 92% 0.9 mph NE1.4 kmh NE 2.2 mph3.5 kmh 30.04 in1017.3 mb 0.00 in0.0 mm 0.00 in0.0 mm 0.00 in0.0 mm
05:50 AM 58.4°F14.7°C 56.1°F13.4°C 92% 1.3 mph NE2.1 kmh NE 3.6 mph5.8 kmh 30.04 in1017.3 mb 0.00 in0.0 mm 0.00 in0.0 mm 0.00 in0.0 mm
05:55 AM 58.4°F14.7°C 56.1°F13.4°C 92% 1.8 mph E2.9 kmh E 3.6 mph5.8 kmh 30.04 in1017.3 mb 0.01 in0.3 mm 0.12 in3.0 mm 0.01 in0.3 mm
06:00 AM 58.6°F14.8°C 56.0°F13.3°C 91% 2.2 mph E3.5 kmh E 3.6 mph5.8 kmh 30.04 in1017.3 mb 0.01 in0.3 mm 0.00 in0.0 mm 0.01 in0.3 mm
06:05 AM 59.1°F15.1°C 56.5°F13.6°C 91% 1.8 mph E2.9 kmh E 3.6 mph5.8 kmh 30.05 in1017.6 mb 0.01 in0.3 mm 0.00 in0.0 mm 0.01 in0.3 mm
06:10 AM 59.3°F15.2°C 56.4°F13.6°C 90% 1.3 mph ESE2.1 kmh ESE 3.6 mph5.8 kmh 30.05 in1017.6 mb 0.01 in0.3 mm 0.00 in0.0 mm 0.01 in0.3 mm
06:15 AM 59.9°F15.5°C 57.0°F13.9°C 90% 1.3 mph ESE2.1 kmh ESE 3.6 mph5.8 kmh 30.05 in1017.6 mb 0.01 in0.3 mm 0.00 in0.0 mm 0.01 in0.3 mm
06:20 AM 59.9°F15.5°C 57.0°F13.9°C 90% 1.8 mph ESE2.9 kmh ESE 4.5 mph7.2 kmh 30.05 in1017.6 mb 0.01 in0.3 mm 0.00 in0.0 mm 0.01 in0.3 mm
06:25 AM 60.0°F15.6°C 57.1°F13.9°C 90% 1.8 mph E2.9 kmh E 4.5 mph7.2 kmh 30.05 in1017.6 mb 0.01 in0.3 mm 0.00 in0.0 mm 0.01 in0.3 mm
06:30 AM 60.4°F15.8°C 57.2°F14.0°C 89% 1.3 mph E2.1 kmh E 2.7 mph4.3 kmh 30.05 in1017.6 mb 0.01 in0.3 mm 0.00 in0.0 mm 0.01 in0.3 mm
06:35 AM 60.0°F15.6°C 56.8°F13.8°C 89% 1.8 mph E2.9 kmh E 4.0 mph6.4 kmh 30.05 in1017.6 mb 0.01 in0.3 mm 0.00 in0.0 mm 0.01 in0.3 mm
06:40 AM 60.6°F15.9°C 57.4°F14.1°C 89% 1.8 mph ESE2.9 kmh ESE 4.0 mph6.4 kmh 30.05 in1017.6 mb 0.01 in0.3 mm 0.00 in0.0 mm 0.01 in0.3 mm
06:45 AM 60.8°F16.0°C 57.3°F14.1°C 88% 1.8 mph SE2.9 kmh SE 3.1 mph5.0 kmh 30.05 in1017.6 mb 0.01 in0.3 mm 0.00 in0.0 mm 0.01 in0.3 mm
06:50 AM 60.8°F16.0°C 57.3°F14.1°C 88% 1.8 mph SE2.9 kmh SE 3.1 mph5.0 kmh 30.05 in1017.6 mb 0.01 in0.3 mm 0.00 in0.0 mm 0.01 in0.3 mm
06:55 AM 60.9°F16.1°C 57.0°F13.9°C 87% 1.8 mph SE2.9 kmh SE 3.6 mph5.8 kmh 30.05 in1017.6 mb 0.00 in0.0 mm 0.00 in0.0 mm 0.01 in0.3 mm
07:00 AM 61.5°F16.4°C 57.6°F14.2°C 87% 1.8 mph SE2.9 kmh SE 4.5 mph7.2 kmh 30.05 in1017.6 mb 0.00 in0.0 mm 0.00 in0.0 mm 0.01 in0.3 mm
07:05 AM 61.7°F16.5°C 57.2°F14.0°C 85% 2.2 mph ESE3.5 kmh ESE 4.5 mph7.2 kmh 30.06 in1017.9 mb 0.00 in0.0 mm 0.00 in0.0 mm 0.01 in0.3 mm
07:10 AM 62.2°F16.8°C 57.3°F14.1°C 84% 2.2 mph ESE3.5 kmh ESE 4.5 mph7.2 kmh 30.06 in1017.9 mb 0.00 in0.0 mm 0.00 in0.0 mm 0.01 in0.3 mm
07:15 AM 62.9°F17.2°C 57.4°F14.1°C 82% 1.8 mph SE2.9 kmh SE 4.5 mph7.2 kmh 30.06 in1017.9 mb 0.00 in0.0 mm 0.00 in0.0 mm 0.01 in0.3 mm
07:20 AM 63.3°F17.4°C 57.7°F14.3°C 82% 2.2 mph SE3.5 kmh SE 4.9 mph7.9 kmh 30.06 in1017.9 mb 0.00 in0.0 mm 0.00 in0.0 mm 0.01 in0.3 mm
07:25 AM 63.6°F17.6°C 57.7°F14.3°C 81% 2.2 mph ESE3.5 kmh ESE 4.9 mph7.9 kmh 30.06 in1017.9 mb 0.00 in0.0 mm 0.00 in0.0 mm 0.01 in0.3 mm
07:30 AM 64.0°F17.8°C 57.7°F14.3°C 80% 2.7 mph SE4.3 kmh SE 4.9 mph7.9 kmh 30.06 in1017.9 mb 0.00 in0.0 mm 0.00 in0.0 mm 0.01 in0.3 mm
07:35 AM 64.2°F17.9°C 57.9°F14.4°C 80% 2.2 mph SE3.5 kmh SE 4.9 mph7.9 kmh 30.07 in1018.3 mb 0.00 in0.0 mm 0.00 in0.0 mm 0.01 in0.3 mm
07:40 AM 64.9°F18.3°C 57.9°F14.4°C 78% 1.8 mph ESE2.9 kmh ESE 4.5 mph7.2 kmh 30.07 in1018.3 mb 0.00 in0.0 mm 0.00 in0.0 mm 0.01 in0.3 mm
07:45 AM 65.4°F18.6°C 58.0°F14.4°C 77% 1.8 mph ENE2.9 kmh ENE 3.6 mph5.8 kmh 30.07 in1018.3 mb 0.00 in0.0 mm 0.00 in0.0 mm 0.01 in0.3 mm
07:50 AM 65.4°F18.6°C 58.0°F14.4°C 77% 1.3 mph E2.1 kmh E 3.1 mph5.0 kmh 30.07 in1018.3 mb 0.00 in0.0 mm 0.00 in0.0 mm 0.01 in0.3 mm
07:55 AM 65.8°F18.8°C 58.1°F14.5°C 76% 1.3 mph SE2.1 kmh SE 4.5 mph7.2 kmh 30.07 in1018.3 mb 0.00 in0.0 mm 0.00 in0.0 mm 0.01 in0.3 mm
08:00 AM 67.2°F19.6°C 59.4°F15.2°C 76% 1.3 mph ESE2.1 kmh ESE 4.5 mph7.2 kmh 30.07 in1018.3 mb 0.00 in0.0 mm 0.00 in0.0 mm 0.01 in0.3 mm
08:05 AM 67.1°F19.5°C 57.8°F14.3°C 72% 0.9 mph E1.4 kmh E 3.1 mph5.0 kmh 30.07 in1018.3 mb 0.00 in0.0 mm 0.00 in0.0 mm 0.01 in0.3 mm
08:10 AM 65.8°F18.8°C 57.3°F14.1°C 74% 1.8 mph E2.9 kmh E 4.5 mph7.2 kmh 30.07 in1018.3 mb 0.00 in0.0 mm 0.00 in0.0 mm 0.01 in0.3 mm
08:15 AM 65.4°F18.6°C 56.6°F13.7°C 73% 2.7 mph ENE4.3 kmh ENE 6.3 mph10.1 kmh 30.07 in1018.3 mb 0.00 in0.0 mm 0.00 in0.0 mm 0.01 in0.3 mm
08:20 AM 65.8°F18.8°C 57.3°F14.1°C 74% 2.7 mph E4.3 kmh E 6.3 mph10.1 kmh 30.06 in1017.9 mb 0.00 in0.0 mm 0.00 in0.0 mm 0.01 in0.3 mm
08:25 AM 66.5°F19.2°C 58.0°F14.4°C 74% 2.7 mph ENE4.3 kmh ENE 6.7 mph10.8 kmh 30.06 in1017.9 mb 0.00 in0.0 mm 0.00 in0.0 mm 0.01 in0.3 mm
08:30 AM 66.9°F19.4°C 58.0°F14.4°C 73% 2.7 mph ESE4.3 kmh ESE 6.7 mph10.8 kmh 30.06 in1017.9 mb 0.00 in0.0 mm 0.00 in0.0 mm 0.01 in0.3 mm
08:35 AM 68.1°F20.1°C 59.2°F15.1°C 73% 2.2 mph SE3.5 kmh SE 6.7 mph10.8 kmh 30.06 in1017.9 mb 0.00 in0.0 mm 0.00 in0.0 mm 0.01 in0.3 mm
08:40 AM 67.8°F19.9°C 58.1°F14.5°C 71% 1.8 mph ESE2.9 kmh ESE 5.4 mph8.7 kmh 30.06 in1017.9 mb 0.00 in0.0 mm 0.00 in0.0 mm 0.01 in0.3 mm
08:45 AM 68.0°F20.0°C 58.7°F14.8°C 72% 2.7 mph ESE4.3 kmh ESE 5.4 mph8.7 kmh 30.06 in1017.9 mb 0.00 in0.0 mm 0.00 in0.0 mm 0.01 in0.3 mm
08:50 AM 69.4°F20.8°C 58.8°F14.9°C 69% 2.2 mph ESE3.5 kmh ESE 5.4 mph8.7 kmh 30.06 in1017.9 mb 0.00 in0.0 mm 0.00 in0.0 mm 0.01 in0.3 mm
08:55 AM 67.4°F19.7°C 57.3°F14.1°C 70% 1.8 mph ESE2.9 kmh ESE 6.3 mph10.1 kmh 30.06 in1017.9 mb 0.00 in0.0 mm 0.00 in0.0 mm 0.01 in0.3 mm
09:00 AM 67.2°F19.6°C 57.9°F14.4°C 72% 2.7 mph ESE4.3 kmh ESE 6.3 mph10.1 kmh 30.06 in1017.9 mb 0.00 in0.0 mm 0.00 in0.0 mm 0.01 in0.3 mm
09:05 AM 69.0°F20.6°C 58.8°F14.9°C 70% 2.7 mph ENE4.3 kmh ENE 5.4 mph8.7 kmh 30.06 in1017.9 mb 0.00 in0.0 mm 0.00 in0.0 mm 0.01 in0.3 mm
09:10 AM 70.5°F21.4°C 59.5°F15.3°C 68% 2.2 mph NE3.5 kmh NE 5.4 mph8.7 kmh 30.06 in1017.9 mb 0.00 in0.0 mm 0.00 in0.0 mm 0.01 in0.3 mm
09:15 AM 71.6°F22.0°C 59.7°F15.4°C 66% 1.8 mph NE2.9 kmh NE 5.8 mph9.3 kmh 30.06 in1017.9 mb 0.00 in0.0 mm 0.00 in0.0 mm 0.01 in0.3 mm
09:20 AM 70.8°F21.6°C 58.1°F14.5°C 64% 2.2 mph NNE3.5 kmh NNE 7.2 mph11.6 kmh 30.06 in1017.9 mb 0.00 in0.0 mm 0.00 in0.0 mm 0.01 in0.3 mm
09:25 AM 70.8°F21.6°C 58.1°F14.5°C 64% 2.2 mph NNE3.5 kmh NNE 7.6 mph12.2 kmh 30.06 in1017.9 mb 0.00 in0.0 mm 0.00 in0.0 mm 0.01 in0.3 mm
09:30 AM 70.3°F21.3°C 57.1°F13.9°C 63% 3.1 mph NNE5.0 kmh NNE 7.6 mph12.2 kmh 30.06 in1017.9 mb 0.00 in0.0 mm 0.00 in0.0 mm 0.01 in0.3 mm
09:35 AM 72.1°F22.3°C 58.8°F14.9°C 63% 2.7 mph N4.3 kmh N 6.3 mph10.1 kmh 30.06 in1017.9 mb 0.00 in0.0 mm 0.00 in0.0 mm 0.01 in0.3 mm
09:40 AM 73.5°F23.1°C 57.9°F14.4°C 58% 2.2 mph N3.5 kmh N 5.8 mph9.3 kmh 30.06 in1017.9 mb 0.00 in0.0 mm 0.00 in0.0 mm 0.01 in0.3 mm
09:45 AM 73.2°F22.9°C 58.0°F14.4°C 59% 2.2 mph N3.5 kmh N 6.3 mph10.1 kmh 30.06 in1017.9 mb 0.00 in0.0 mm 0.00 in0.0 mm 0.01 in0.3 mm
09:50 AM 73.0°F22.8°C 57.9°F14.4°C 59% 2.7 mph N4.3 kmh N 6.7 mph10.8 kmh 30.06 in1017.9 mb 0.00 in0.0 mm 0.00 in0.0 mm 0.01 in0.3 mm
09:55 AM 74.8°F23.8°C 58.6°F14.8°C 57% 2.7 mph N4.3 kmh N 6.7 mph10.8 kmh 30.06 in1017.9 mb 0.00 in0.0 mm 0.00 in0.0 mm 0.01 in0.3 mm
10:00 AM 73.9°F23.3°C 57.3°F14.1°C 56% 2.2 mph NNW3.5 kmh NNW 4.9 mph7.9 kmh 30.06 in1017.9 mb 0.00 in0.0 mm 0.00 in0.0 mm 0.01 in0.3 mm
10:05 AM 73.5°F23.1°C 57.4°F14.1°C 57% 1.8 mph NW2.9 kmh NW 4.5 mph7.2 kmh 30.06 in1017.9 mb 0.00 in0.0 mm 0.00 in0.0 mm 0.01 in0.3 mm
10:10 AM 74.6°F23.7°C 57.9°F14.4°C 56% 1.8 mph NNW2.9 kmh NNW 5.4 mph8.7 kmh 30.06 in1017.9 mb 0.00 in0.0 mm 0.00 in0.0 mm 0.01 in0.3 mm
10:15 AM 73.5°F23.1°C 57.9°F14.4°C 58% 1.8 mph NNW2.9 kmh NNW 5.4 mph8.7 kmh 30.05 in1017.6 mb 0.00 in0.0 mm 0.00 in0.0 mm 0.01 in0.3 mm
10:20 AM 75.7°F24.3°C 58.4°F14.7°C 55% 2.2 mph NNW3.5 kmh NNW 5.4 mph8.7 kmh 30.05 in1017.6 mb 0.00 in0.0 mm 0.00 in0.0 mm 0.01 in0.3 mm
10:25 AM 74.3°F23.5°C 57.6°F14.2°C 56% 3.1 mph NW5.0 kmh NW 6.7 mph10.8 kmh 30.05 in1017.6 mb 0.00 in0.0 mm 0.00 in0.0 mm 0.01 in0.3 mm
10:30 AM 73.4°F23.0°C 56.3°F13.5°C 55% 3.1 mph WNW5.0 kmh WNW 6.7 mph10.8 kmh 30.05 in1017.6 mb 0.00 in0.0 mm 0.00 in0.0 mm 0.01 in0.3 mm
10:35 AM 72.6°F22.6°C 57.0°F13.9°C 58% 3.1 mph WNW5.0 kmh WNW 8.1 mph13.0 kmh 30.06 in1017.9 mb 0.00 in0.0 mm 0.00 in0.0 mm 0.01 in0.3 mm
10:40 AM 71.9°F22.2°C 56.4°F13.6°C 58% 3.6 mph W5.8 kmh W 8.1 mph13.0 kmh 30.05 in1017.6 mb 0.00 in0.0 mm 0.00 in0.0 mm 0.01 in0.3 mm
10:45 AM 72.6°F22.6°C 57.5°F14.2°C 59% 2.7 mph WSW4.3 kmh WSW 6.7 mph10.8 kmh 30.05 in1017.6 mb 0.00 in0.0 mm 0.00 in0.0 mm 0.01 in0.3 mm
10:50 AM 72.5°F22.5°C 56.9°F13.8°C 58% 2.7 mph W4.3 kmh W 8.1 mph13.0 kmh 30.06 in1017.9 mb 0.00 in0.0 mm 0.00 in0.0 mm 0.01 in0.3 mm
10:55 AM 73.7°F23.2°C 57.6°F14.2°C 57% 3.1 mph WNW5.0 kmh WNW 8.1 mph13.0 kmh 30.05 in1017.6 mb 0.00 in0.0 mm 0.00 in0.0 mm 0.01 in0.3 mm
11:00 AM 73.2°F22.9°C 56.6°F13.7°C 56% 2.7 mph WNW4.3 kmh WNW 7.2 mph11.6 kmh 30.05 in1017.6 mb 0.00 in0.0 mm 0.00 in0.0 mm 0.01 in0.3 mm
11:05 AM 73.7°F23.2°C 57.6°F14.2°C 57% 2.2 mph W3.5 kmh W 7.2 mph11.6 kmh 30.05 in1017.6 mb 0.00 in0.0 mm 0.00 in0.0 mm 0.01 in0.3 mm
11:10 AM 74.3°F23.5°C 57.6°F14.2°C 56% 2.2 mph WSW3.5 kmh WSW 5.4 mph8.7 kmh 30.05 in1017.6 mb 0.00 in0.0 mm 0.00 in0.0 mm 0.01 in0.3 mm
11:15 AM 72.6°F22.6°C 56.0°F13.3°C 56% 1.8 mph SW2.9 kmh SW 6.3 mph10.1 kmh 30.05 in1017.6 mb 0.00 in0.0 mm 0.00 in0.0 mm 0.01 in0.3 mm
11:20 AM 72.3°F22.4°C 56.7°F13.7°C 58% 3.1 mph SW5.0 kmh SW 6.7 mph10.8 kmh 30.05 in1017.6 mb 0.00 in0.0 mm 0.00 in0.0 mm 0.01 in0.3 mm
11:25 AM 74.1°F23.4°C 57.4°F14.1°C 56% 3.1 mph SW5.0 kmh SW 6.7 mph10.8 kmh 30.05 in1017.6 mb 0.00 in0.0 mm 0.00 in0.0 mm 0.01 in0.3 mm
11:30 AM 74.3°F23.5°C 57.1°F13.9°C 55% 2.2 mph WSW3.5 kmh WSW 4.9 mph7.9 kmh 30.04 in1017.3 mb 0.00 in0.0 mm 0.00 in0.0 mm 0.01 in0.3 mm
11:35 AM 73.7°F23.2°C 56.6°F13.7°C 55% 2.2 mph WSW3.5 kmh WSW 6.7 mph10.8 kmh 30.04 in1017.3 mb 0.00 in0.0 mm 0.00 in0.0 mm 0.01 in0.3 mm
11:40 AM 74.4°F23.6°C 57.2°F14.0°C 55% 2.7 mph SW4.3 kmh SW 6.7 mph10.8 kmh 30.04 in1017.3 mb 0.00 in0.0 mm 0.00 in0.0 mm 0.01 in0.3 mm
11:45 AM 75.9°F24.4°C 57.6°F14.2°C 53% 2.2 mph SW3.5 kmh SW 6.7 mph10.8 kmh 30.04 in1017.3 mb 0.00 in0.0 mm 0.00 in0.0 mm 0.01 in0.3 mm
11:50 AM 77.3°F25.2°C 58.3°F14.6°C 52% 2.2 mph NW3.5 kmh NW 5.4 mph8.7 kmh 30.04 in1017.3 mb 0.00 in0.0 mm 0.00 in0.0 mm 0.01 in0.3 mm
11:55 AM 78.4°F25.8°C 58.8°F14.9°C 51% 2.2 mph NW3.5 kmh NW 7.2 mph11.6 kmh 30.04 in1017.3 mb 0.00 in0.0 mm 0.00 in0.0 mm 0.01 in0.3 mm
12:00 PM 78.2°F25.7°C 58.1°F14.5°C 50% 2.7 mph NW4.3 kmh NW 9.0 mph14.5 kmh 30.04 in1017.3 mb 0.00 in0.0 mm 0.00 in0.0 mm 0.01 in0.3 mm
12:05 PM 76.1°F24.5°C 56.7°F13.7°C 51% 2.7 mph NW4.3 kmh NW 9.0 mph14.5 kmh 30.04 in1017.3 mb 0.00 in0.0 mm 0.00 in0.0 mm 0.01 in0.3 mm
12:10 PM 74.6°F23.7°C 56.9°F13.8°C 54% 2.2 mph WNW3.5 kmh WNW 7.2 mph11.6 kmh 30.03 in1016.9 mb 0.00 in0.0 mm 0.00 in0.0 mm 0.01 in0.3 mm
12:15 PM 74.3°F23.5°C 56.6°F13.7°C 54% 2.2 mph W3.5 kmh W 4.9 mph7.9 kmh 30.03 in1016.9 mb 0.00 in0.0 mm 0.00 in0.0 mm 0.01 in0.3 mm
12:20 PM 74.1°F23.4°C 57.4°F14.1°C 56% 3.1 mph W5.0 kmh W 9.0 mph14.5 kmh 30.03 in1016.9 mb 0.00 in0.0 mm 0.00 in0.0 mm 0.01 in0.3 mm
12:25 PM 74.6°F23.7°C 57.9°F14.4°C 56% 3.6 mph WNW5.8 kmh WNW 9.0 mph14.5 kmh 30.03 in1016.9 mb 0.00 in0.0 mm 0.00 in0.0 mm 0.01 in0.3 mm
12:30 PM 74.3°F23.5°C 57.6°F14.2°C 56% 3.6 mph NW5.8 kmh NW 7.6 mph12.2 kmh 30.03 in1016.9 mb 0.00 in0.0 mm 0.00 in0.0 mm 0.01 in0.3 mm
12:35 PM 73.7°F23.2°C 57.1°F13.9°C 56% 3.1 mph WNW5.0 kmh WNW 6.7 mph10.8 kmh 30.03 in1016.9 mb 0.00 in0.0 mm 0.00 in0.0 mm 0.01 in0.3 mm
12:40 PM 74.4°F23.6°C 57.7°F14.3°C 56% 2.2 mph W3.5 kmh W 4.9 mph7.9 kmh 30.03 in1016.9 mb 0.00 in0.0 mm 0.00 in0.0 mm 0.01 in0.3 mm
12:45 PM 74.8°F23.8°C 58.1°F14.5°C 56% 2.2 mph WNW3.5 kmh WNW 7.2 mph11.6 kmh 30.03 in1016.9 mb 0.00 in0.0 mm 0.00 in0.0 mm 0.01 in0.3 mm
12:50 PM 77.7°F25.4°C 58.7°F14.8°C 52% 2.7 mph NW4.3 kmh NW 7.2 mph11.6 kmh 30.03 in1016.9 mb 0.00 in0.0 mm 0.00 in0.0 mm 0.01 in0.3 mm
12:55 PM 78.4°F25.8°C 58.3°F14.6°C 50% 2.2 mph NNW3.5 kmh NNW 5.8 mph9.3 kmh 30.03 in1016.9 mb 0.00 in0.0 mm 0.00 in0.0 mm 0.01 in0.3 mm
01:00 PM 76.4°F24.7°C 57.5°F14.2°C 52% 2.2 mph NNW3.5 kmh NNW 7.2 mph11.6 kmh 30.03 in1016.9 mb 0.00 in0.0 mm 0.00 in0.0 mm 0.01 in0.3 mm
01:05 PM 74.6°F23.7°C 57.4°F14.1°C 55% 2.7 mph SSE4.3 kmh SSE 7.2 mph11.6 kmh 30.03 in1016.9 mb 0.00 in0.0 mm 0.00 in0.0 mm 0.01 in0.3 mm
01:10 PM 74.3°F23.5°C 57.1°F13.9°C 55% 2.7 mph SSE4.3 kmh SSE 6.3 mph10.1 kmh 30.03 in1016.9 mb 0.00 in0.0 mm 0.00 in0.0 mm 0.01 in0.3 mm
01:15 PM 73.5°F23.1°C 56.4°F13.6°C 55% 2.2 mph E3.5 kmh E 7.6 mph12.2 kmh 30.02 in1016.6 mb 0.00 in0.0 mm 0.00 in0.0 mm 0.01 in0.3 mm
01:20 PM 76.2°F24.6°C 57.9°F14.4°C 53% 2.2 mph E3.5 kmh E 7.6 mph12.2 kmh 30.02 in1016.6 mb 0.00 in0.0 mm 0.00 in0.0 mm 0.01 in0.3 mm
01:25 PM 79.7°F26.5°C 58.9°F14.9°C 49% 1.8 mph ENE2.9 kmh ENE 4.0 mph6.4 kmh 30.02 in1016.6 mb 0.00 in0.0 mm 0.00 in0.0 mm 0.01 in0.3 mm
01:30 PM 77.9°F25.5°C 57.8°F14.3°C 50% 2.2 mph E3.5 kmh E 4.5 mph7.2 kmh 30.02 in1016.6 mb 0.00 in0.0 mm 0.00 in0.0 mm 0.01 in0.3 mm
01:35 PM 78.2°F25.7°C 58.6°F14.8°C 51% 2.7 mph SE4.3 kmh SE 5.8 mph9.3 kmh 30.02 in1016.6 mb 0.00 in0.0 mm 0.00 in0.0 mm 0.01 in0.3 mm
01:40 PM 77.0°F25.0°C 57.5°F14.2°C 51% 2.2 mph SSE3.5 kmh SSE 5.8 mph9.3 kmh 30.02 in1016.6 mb 0.00 in0.0 mm 0.00 in0.0 mm 0.01 in0.3 mm
01:45 PM 76.4°F24.7°C 57.0°F13.9°C 51% 2.2 mph S3.5 kmh S 4.5 mph7.2 kmh 30.02 in1016.6 mb 0.00 in0.0 mm 0.00 in0.0 mm 0.01 in0.3 mm
01:50 PM 76.1°F24.5°C 57.8°F14.3°C 53% 1.8 mph S2.9 kmh S 6.3 mph10.1 kmh 30.02 in1016.6 mb 0.00 in0.0 mm 0.00 in0.0 mm 0.01 in0.3 mm
01:55 PM 76.8°F24.9°C 56.8°F13.8°C 50% 1.8 mph SSW2.9 kmh SSW 6.3 mph10.1 kmh 30.02 in1016.6 mb 0.00 in0.0 mm 0.00 in0.0 mm 0.01 in0.3 mm
02:00 PM 76.4°F24.7°C 57.0°F13.9°C 51% 2.2 mph SW3.5 kmh SW 4.9 mph7.9 kmh 30.02 in1016.6 mb 0.00 in0.0 mm 0.00 in0.0 mm 0.01 in0.3 mm
02:05 PM 75.2°F24.0°C 56.9°F13.8°C 53% 2.7 mph SW4.3 kmh SW 7.6 mph12.2 kmh 30.01 in1016.3 mb 0.00 in0.0 mm 0.00 in0.0 mm 0.01 in0.3 mm
02:10 PM 73.4°F23.0°C 56.3°F13.5°C 55% 3.1 mph SW5.0 kmh SW 10.8 mph17.4 kmh 30.01 in1016.3 mb 0.00 in0.0 mm 0.00 in0.0 mm 0.01 in0.3 mm
02:15 PM 73.2°F22.9°C 56.1°F13.4°C 55% 3.6 mph SW5.8 kmh SW 10.8 mph17.4 kmh 30.01 in1016.3 mb 0.00 in0.0 mm 0.00 in0.0 mm 0.01 in0.3 mm
02:20 PM 72.8°F22.7°C 55.7°F13.2°C 55% 4.0 mph SW6.4 kmh SW 9.4 mph15.1 kmh 30.01 in1016.3 mb 0.00 in0.0 mm 0.00 in0.0 mm 0.01 in0.3 mm
02:25 PM 72.8°F22.7°C 56.7°F13.7°C 57% 3.6 mph SW5.8 kmh SW 9.4 mph15.1 kmh 30.01 in1016.3 mb 0.00 in0.0 mm 0.00 in0.0 mm 0.01 in0.3 mm
02:30 PM 72.5°F22.5°C 58.3°F14.6°C 61% 2.7 mph WSW4.3 kmh WSW 6.7 mph10.8 kmh 30.01 in1016.3 mb 0.00 in0.0 mm 0.00 in0.0 mm 0.01 in0.3 mm
02:35 PM 70.7°F21.5°C 59.7°F15.4°C 68% 4.5 mph SW7.2 kmh SW 12.1 mph19.5 kmh 30.02 in1016.6 mb 0.00 in0.0 mm 0.00 in0.0 mm 0.01 in0.3 mm
02:40 PM 69.6°F20.9°C 61.0°F16.1°C 74% 5.4 mph SW8.7 kmh SW 12.1 mph19.5 kmh 30.02 in1016.6 mb 0.00 in0.0 mm 0.00 in0.0 mm 0.01 in0.3 mm
02:45 PM 68.5°F20.3°C 59.9°F15.5°C 74% 5.4 mph SW8.7 kmh SW 10.3 mph16.6 kmh 30.02 in1016.6 mb 0.00 in0.0 mm 0.00 in0.0 mm 0.01 in0.3 mm
02:50 PM 68.9°F20.5°C 61.4°F16.3°C 77% 4.5 mph SW7.2 kmh SW 10.3 mph16.6 kmh 30.02 in1016.6 mb 0.00 in0.0 mm 0.00 in0.0 mm 0.01 in0.3 mm
02:55 PM 68.7°F20.4°C 61.6°F16.4°C 78% 2.7 mph SW4.3 kmh SW 9.4 mph15.1 kmh 30.03 in1016.9 mb 0.00 in0.0 mm 0.00 in0.0 mm 0.01 in0.3 mm
03:00 PM 68.3°F20.2°C 60.5°F15.8°C 76% 2.2 mph SW3.5 kmh SW 5.4 mph8.7 kmh 30.03 in1016.9 mb 0.00 in0.0 mm 0.00 in0.0 mm 0.01 in0.3 mm
03:05 PM 68.5°F20.3°C 61.0°F16.1°C 77% 2.7 mph SW4.3 kmh SW 6.3 mph10.1 kmh 30.03 in1016.9 mb 0.00 in0.0 mm 0.00 in0.0 mm 0.01 in0.3 mm
03:10 PM 67.8°F19.9°C 60.7°F15.9°C 78% 3.1 mph SW5.0 kmh SW 9.0 mph14.5 kmh 30.02 in1016.6 mb 0.00 in0.0 mm 0.00 in0.0 mm 0.01 in0.3 mm
03:15 PM 67.4°F19.7°C 60.7°F15.9°C 79% 4.0 mph SW6.4 kmh SW 9.0 mph14.5 kmh 30.01 in1016.3 mb 0.00 in0.0 mm 0.00 in0.0 mm 0.01 in0.3 mm
03:20 PM 67.6°F19.8°C 60.9°F16.1°C 79% 3.6 mph SW5.8 kmh SW 8.5 mph13.7 kmh 30.02 in1016.6 mb 0.00 in0.0 mm 0.00 in0.0 mm 0.01 in0.3 mm
03:25 PM 67.6°F19.8°C 60.5°F15.8°C 78% 2.7 mph SW4.3 kmh SW 5.8 mph9.3 kmh 30.02 in1016.6 mb 0.00 in0.0 mm 0.00 in0.0 mm 0.01 in0.3 mm
03:30 PM 67.1°F19.5°C 61.1°F16.2°C 81% 3.1 mph S5.0 kmh S 7.6 mph12.2 kmh 30.02 in1016.6 mb 0.02 in0.5 mm 0.24 in6.1 mm 0.02 in0.5 mm
03:35 PM 63.6°F17.6°C 58.7°F14.8°C 84% 3.6 mph SE5.8 kmh SE 8.1 mph13.0 kmh 30.03 in1016.9 mb 0.02 in0.5 mm 0.00 in0.0 mm 0.02 in0.5 mm
03:40 PM 63.8°F17.7°C 59.9°F15.5°C 87% 3.1 mph ENE5.0 kmh ENE 8.1 mph13.0 kmh 30.04 in1017.3 mb 0.02 in0.5 mm 0.00 in0.0 mm 0.03 in0.8 mm
03:45 PM 64.0°F17.8°C 59.8°F15.4°C 86% 2.7 mph NE4.3 kmh NE 4.5 mph7.2 kmh 30.04 in1017.3 mb 0.02 in0.5 mm 0.00 in0.0 mm 0.03 in0.8 mm
03:50 PM 63.5°F17.5°C 59.3°F15.2°C 86% 2.2 mph NE3.5 kmh NE 4.0 mph6.4 kmh 30.05 in1017.6 mb 0.02 in0.5 mm 0.00 in0.0 mm 0.03 in0.8 mm
03:55 PM 61.8°F16.6°C 57.6°F14.2°C 86% 2.7 mph ENE4.3 kmh ENE 7.6 mph12.2 kmh 30.05 in1017.6 mb 0.02 in0.5 mm 0.00 in0.0 mm 0.03 in0.8 mm
04:00 PM 62.0°F16.7°C 57.1°F13.9°C 84% 3.6 mph ENE5.8 kmh ENE 7.6 mph12.2 kmh 30.05 in1017.6 mb 0.02 in0.5 mm 0.00 in0.0 mm 0.03 in0.8 mm
04:05 PM 62.7°F17.1°C 58.2°F14.6°C 85% 3.6 mph NE5.8 kmh NE 8.5 mph13.7 kmh 30.05 in1017.6 mb 0.02 in0.5 mm 0.00 in0.0 mm 0.03 in0.8 mm
04:10 PM 62.2°F16.8°C 56.7°F13.7°C 82% 2.7 mph NE4.3 kmh NE 8.5 mph13.7 kmh 30.05 in1017.6 mb 0.02 in0.5 mm 0.00 in0.0 mm 0.03 in0.8 mm
04:15 PM 62.4°F16.9°C 56.9°F13.8°C 82% 2.7 mph E4.3 kmh E 7.6 mph12.2 kmh 30.05 in1017.6 mb 0.02 in0.5 mm 0.00 in0.0 mm 0.03 in0.8 mm
04:20 PM 62.6°F17.0°C 57.7°F14.3°C 84% 3.1 mph NE5.0 kmh NE 5.8 mph9.3 kmh 30.05 in1017.6 mb 0.02 in0.5 mm 0.00 in0.0 mm 0.03 in0.8 mm
04:25 PM 61.8°F16.6°C 55.6°F13.1°C 80% 3.1 mph NE5.0 kmh NE 6.7 mph10.8 kmh 30.05 in1017.6 mb 0.02 in0.5 mm 0.00 in0.0 mm 0.03 in0.8 mm
04:30 PM 61.5°F16.4°C 55.7°F13.2°C 81% 3.1 mph ENE5.0 kmh ENE 6.7 mph10.8 kmh 30.05 in1017.6 mb 0.01 in0.3 mm 0.00 in0.0 mm 0.03 in0.8 mm
04:35 PM 61.8°F16.6°C 57.0°F13.9°C 84% 3.1 mph ENE5.0 kmh ENE 6.7 mph10.8 kmh 30.06 in1017.9 mb 0.01 in0.3 mm 0.00 in0.0 mm 0.03 in0.8 mm
04:40 PM 61.7°F16.5°C 56.5°F13.6°C 83% 2.7 mph NE4.3 kmh NE 6.7 mph10.8 kmh 30.06 in1017.9 mb 0.00 in0.0 mm 0.00 in0.0 mm 0.03 in0.8 mm
04:45 PM 61.1°F16.2°C 56.3°F13.5°C 84% 3.1 mph ENE5.0 kmh ENE 7.2 mph11.6 kmh 30.06 in1017.9 mb 0.00 in0.0 mm 0.00 in0.0 mm 0.03 in0.8 mm
04:50 PM 60.9°F16.1°C 55.7°F13.2°C 83% 4.0 mph ENE6.4 kmh ENE 9.9 mph15.9 kmh 30.07 in1018.3 mb 0.00 in0.0 mm 0.00 in0.0 mm 0.03 in0.8 mm
04:55 PM 60.2°F15.7°C 55.4°F13.0°C 84% 4.0 mph ENE6.4 kmh ENE 9.9 mph15.9 kmh 30.07 in1018.3 mb 0.00 in0.0 mm 0.00 in0.0 mm 0.03 in0.8 mm
05:00 PM 59.9°F15.5°C 55.4°F13.0°C 85% 4.5 mph NE7.2 kmh NE 10.8 mph17.4 kmh 30.07 in1018.3 mb 0.00 in0.0 mm 0.00 in0.0 mm 0.03 in0.8 mm
05:05 PM 59.3°F15.2°C 55.2°F12.9°C 86% 4.5 mph NE7.2 kmh NE 10.8 mph17.4 kmh 30.07 in1018.3 mb 0.00 in0.0 mm 0.00 in0.0 mm 0.03 in0.8 mm
05:10 PM 59.1°F15.1°C 55.6°F13.1°C 88% 4.5 mph E7.2 kmh E 10.8 mph17.4 kmh 30.07 in1018.3 mb 0.01 in0.3 mm 0.12 in3.0 mm 0.04 in1.0 mm
05:15 PM 59.1°F15.1°C 55.9°F13.3°C 89% 4.9 mph E7.9 kmh E 10.8 mph17.4 kmh 30.07 in1018.3 mb 0.02 in0.5 mm 0.12 in3.0 mm 0.05 in1.3 mm
05:20 PM 59.1°F15.1°C 56.2°F13.4°C 90% 4.0 mph ENE6.4 kmh ENE 10.3 mph16.6 kmh 30.07 in1018.3 mb 0.02 in0.5 mm 0.00 in0.0 mm 0.05 in1.3 mm
05:25 PM 58.6°F14.8°C 55.1°F12.8°C 88% 3.6 mph ENE5.8 kmh ENE 13.9 mph22.4 kmh 30.07 in1018.3 mb 0.02 in0.5 mm 0.00 in0.0 mm 0.06 in1.5 mm
05:30 PM 58.6°F14.8°C 55.4°F13.0°C 89% 3.6 mph ENE5.8 kmh ENE 13.9 mph22.4 kmh 30.07 in1018.3 mb 0.02 in0.5 mm 0.00 in0.0 mm 0.06 in1.5 mm
05:35 PM 58.8°F14.9°C 55.9°F13.3°C 90% 3.6 mph NE5.8 kmh NE 7.6 mph12.2 kmh 30.07 in1018.3 mb 0.02 in0.5 mm 0.00 in0.0 mm 0.06 in1.5 mm
05:40 PM 58.8°F14.9°C 56.2°F13.4°C 91% 4.0 mph NNE6.4 kmh NNE 7.6 mph12.2 kmh 30.07 in1018.3 mb 0.02 in0.5 mm 0.00 in0.0 mm 0.06 in1.5 mm
05:45 PM 58.6°F14.8°C 56.0°F13.3°C 91% 4.0 mph NNE6.4 kmh NNE 7.6 mph12.2 kmh 30.07 in1018.3 mb 0.03 in0.8 mm 0.12 in3.0 mm 0.06 in1.5 mm
05:50 PM 58.6°F14.8°C 56.0°F13.3°C 91% 3.6 mph NNE5.8 kmh NNE 7.2 mph11.6 kmh 30.07 in1018.3 mb 0.03 in0.8 mm 0.00 in0.0 mm 0.06 in1.5 mm
05:55 PM 58.6°F14.8°C 56.0°F13.3°C 91% 3.6 mph NE5.8 kmh NE 7.2 mph11.6 kmh 30.07 in1018.3 mb 0.03 in0.8 mm 0.00 in0.0 mm 0.06 in1.5 mm
06:00 PM 58.4°F14.7°C 55.8°F13.2°C 91% 3.1 mph NE5.0 kmh NE 9.4 mph15.1 kmh 30.07 in1018.3 mb 0.03 in0.8 mm 0.00 in0.0 mm 0.06 in1.5 mm
06:05 PM 58.4°F14.7°C 55.8°F13.2°C 91% 3.6 mph NE5.8 kmh NE 9.4 mph15.1 kmh 30.07 in1018.3 mb 0.03 in0.8 mm 0.00 in0.0 mm 0.06 in1.5 mm
06:10 PM 58.2°F14.6°C 55.3°F12.9°C 90% 3.6 mph NE5.8 kmh NE 7.6 mph12.2 kmh 30.07 in1018.3 mb 0.02 in0.5 mm 0.00 in0.0 mm 0.06 in1.5 mm
06:15 PM 57.9°F14.4°C 55.0°F12.8°C 90% 3.1 mph NE5.0 kmh NE 7.6 mph12.2 kmh 30.07 in1018.3 mb 0.02 in0.5 mm 0.00 in0.0 mm 0.06 in1.5 mm
06:20 PM 57.9°F14.4°C 55.3°F12.9°C 91% 2.7 mph NE4.3 kmh NE 6.3 mph10.1 kmh 30.07 in1018.3 mb 0.02 in0.5 mm 0.00 in0.0 mm 0.06 in1.5 mm
06:25 PM 57.9°F14.4°C 55.3°F12.9°C 91% 2.7 mph NE4.3 kmh NE 6.3 mph10.1 kmh 30.07 in1018.3 mb 0.01 in0.3 mm 0.00 in0.0 mm 0.06 in1.5 mm
06:30 PM 58.4°F14.7°C 56.1°F13.4°C 92% 2.2 mph NNE3.5 kmh NNE 6.3 mph10.1 kmh 30.08 in1018.6 mb 0.01 in0.3 mm 0.00 in0.0 mm 0.06 in1.5 mm
06:35 PM 58.6°F14.8°C 56.0°F13.3°C 91% 1.8 mph N2.9 kmh N 4.9 mph7.9 kmh 30.09 in1019.0 mb 0.01 in0.3 mm 0.00 in0.0 mm 0.06 in1.5 mm
06:40 PM 58.6°F14.8°C 56.3°F13.5°C 92% 2.7 mph N4.3 kmh N 5.4 mph8.7 kmh 30.08 in1018.6 mb 0.01 in0.3 mm 0.00 in0.0 mm 0.06 in1.5 mm
06:45 PM 58.8°F14.9°C 56.5°F13.6°C 92% 2.2 mph N3.5 kmh N 5.4 mph8.7 kmh 30.08 in1018.6 mb 0.00 in0.0 mm 0.00 in0.0 mm 0.06 in1.5 mm
06:50 PM 58.6°F14.8°C 56.3°F13.5°C 92% 1.8 mph NNW2.9 kmh NNW 4.5 mph7.2 kmh 30.08 in1018.6 mb 0.00 in0.0 mm 0.00 in0.0 mm 0.06 in1.5 mm
06:55 PM 58.8°F14.9°C 56.5°F13.6°C 92% 1.3 mph NNW2.1 kmh NNW 4.0 mph6.4 kmh 30.08 in1018.6 mb 0.00 in0.0 mm 0.00 in0.0 mm 0.06 in1.5 mm
07:00 PM 59.0°F15.0°C 56.7°F13.7°C 92% 0.9 mph NNW1.4 kmh NNW 2.2 mph3.5 kmh 30.07 in1018.3 mb 0.00 in0.0 mm 0.00 in0.0 mm 0.06 in1.5 mm
07:05 PM 59.0°F15.0°C 57.0°F13.9°C 93% 1.3 mph NNW2.1 kmh NNW 2.7 mph4.3 kmh 30.08 in1018.6 mb 0.00 in0.0 mm 0.00 in0.0 mm 0.06 in1.5 mm
07:10 PM 58.8°F14.9°C 56.5°F13.6°C 92% 1.8 mph N2.9 kmh N 2.7 mph4.3 kmh 30.07 in1018.3 mb 0.00 in0.0 mm 0.00 in0.0 mm 0.06 in1.5 mm
07:15 PM 59.0°F15.0°C 57.0°F13.9°C 93% 1.8 mph NNE2.9 kmh NNE 3.6 mph5.8 kmh 30.07 in1018.3 mb 0.00 in0.0 mm 0.00 in0.0 mm 0.06 in1.5 mm
07:20 PM 58.6°F14.8°C 56.6°F13.7°C 93% 1.8 mph N2.9 kmh N 7.2 mph11.6 kmh 30.08 in1018.6 mb 0.00 in0.0 mm 0.00 in0.0 mm 0.06 in1.5 mm
07:25 PM 58.6°F14.8°C 56.3°F13.5°C 92% 1.8 mph NNW2.9 kmh NNW 7.2 mph11.6 kmh 30.08 in1018.6 mb 0.00 in0.0 mm 0.00 in0.0 mm 0.06 in1.5 mm
07:30 PM 58.4°F14.7°C 56.1°F13.4°C 92% 0.9 mph NNW1.4 kmh NNW 2.7 mph4.3 kmh 30.08 in1018.6 mb 0.00 in0.0 mm 0.00 in0.0 mm 0.06 in1.5 mm
07:35 PM 58.2°F14.6°C 55.9°F13.3°C 92% 0.4 mph NE0.6 kmh NE 0.9 mph1.4 kmh 30.08 in1018.6 mb 0.00 in0.0 mm 0.00 in0.0 mm 0.06 in1.5 mm
07:40 PM 58.1°F14.5°C 55.8°F13.2°C 92% 0.4 mph NE0.6 kmh NE 1.3 mph2.1 kmh 30.08 in1018.6 mb 0.00 in0.0 mm 0.00 in0.0 mm 0.06 in1.5 mm
07:45 PM 58.1°F14.5°C 55.8°F13.2°C 92% 0.9 mph ENE1.4 kmh ENE 1.8 mph2.9 kmh 30.08 in1018.6 mb 0.00 in0.0 mm 0.00 in0.0 mm 0.06 in1.5 mm
07:50 PM 57.7°F14.3°C 55.4°F13.0°C 92% 0.9 mph E1.4 kmh E 3.1 mph5.0 kmh 30.08 in1018.6 mb 0.00 in0.0 mm 0.00 in0.0 mm 0.06 in1.5 mm
07:55 PM 57.9°F14.4°C 55.9°F13.3°C 93% 1.3 mph SE2.1 kmh SE 3.1 mph5.0 kmh 30.07 in1018.3 mb 0.00 in0.0 mm 0.00 in0.0 mm 0.06 in1.5 mm
08:00 PM 57.7°F14.3°C 55.7°F13.2°C 93% 1.3 mph SE2.1 kmh SE 3.6 mph5.8 kmh 30.08 in1018.6 mb 0.00 in0.0 mm 0.00 in0.0 mm 0.06 in1.5 mm
08:05 PM 57.3°F14.1°C 55.6°F13.1°C 94% 1.8 mph E2.9 kmh E 4.9 mph7.9 kmh 30.08 in1018.6 mb 0.00 in0.0 mm 0.00 in0.0 mm 0.06 in1.5 mm
08:10 PM 57.2°F14.0°C 55.5°F13.1°C 94% 1.8 mph E2.9 kmh E 4.9 mph7.9 kmh 30.08 in1018.6 mb 0.00 in0.0 mm 0.00 in0.0 mm 0.06 in1.5 mm
08:15 PM 57.2°F14.0°C 55.5°F13.1°C 94% 1.8 mph E2.9 kmh E 3.6 mph5.8 kmh 30.07 in1018.3 mb 0.00 in0.0 mm 0.00 in0.0 mm 0.06 in1.5 mm
08:20 PM 57.0°F13.9°C 55.3°F12.9°C 94% 1.8 mph E2.9 kmh E 3.1 mph5.0 kmh 30.08 in1018.6 mb 0.00 in0.0 mm 0.00 in0.0 mm 0.06 in1.5 mm
08:25 PM 56.8°F13.8°C 55.1°F12.8°C 94% 1.3 mph E2.1 kmh E 3.1 mph5.0 kmh 30.08 in1018.6 mb 0.00 in0.0 mm 0.00 in0.0 mm 0.06 in1.5 mm
08:30 PM 56.8°F13.8°C 55.1°F12.8°C 94% 1.3 mph ESE2.1 kmh ESE 2.2 mph3.5 kmh 30.08 in1018.6 mb 0.00 in0.0 mm 0.00 in0.0 mm 0.06 in1.5 mm
08:35 PM 56.6°F13.7°C 55.2°F12.9°C 95% 0.9 mph SE1.4 kmh SE 2.7 mph4.3 kmh 30.08 in1018.6 mb 0.00 in0.0 mm 0.00 in0.0 mm 0.06 in1.5 mm
08:40 PM 56.6°F13.7°C 55.2°F12.9°C 95% 1.3 mph SE2.1 kmh SE 2.7 mph4.3 kmh 30.08 in1018.6 mb 0.00 in0.0 mm 0.00 in0.0 mm 0.06 in1.5 mm
08:45 PM 56.6°F13.7°C 55.2°F12.9°C 95% 0.9 mph SE1.4 kmh SE 2.2 mph3.5 kmh 30.08 in1018.6 mb 0.00 in0.0 mm 0.00 in0.0 mm 0.06 in1.5 mm
08:50 PM 56.4°F13.6°C 55.0°F12.8°C 95% 0.9 mph SE1.4 kmh SE 2.2 mph3.5 kmh 30.08 in1018.6 mb 0.00 in0.0 mm 0.00 in0.0 mm 0.06 in1.5 mm
08:55 PM 56.4°F13.6°C 55.0°F12.8°C 95% 1.3 mph SE2.1 kmh SE 2.2 mph3.5 kmh 30.08 in1018.6 mb 0.00 in0.0 mm 0.00 in0.0 mm 0.06 in1.5 mm
09:00 PM 56.3°F13.5°C 54.9°F12.7°C 95% 1.3 mph SE2.1 kmh SE 2.2 mph3.5 kmh 30.09 in1019.0 mb 0.00 in0.0 mm 0.00 in0.0 mm 0.06 in1.5 mm
09:05 PM 56.3°F13.5°C 55.2°F12.9°C 96% 1.3 mph ESE2.1 kmh ESE 2.7 mph4.3 kmh 30.08 in1018.6 mb 0.00 in0.0 mm 0.00 in0.0 mm 0.06 in1.5 mm
09:10 PM 56.1°F13.4°C 54.7°F12.6°C 95% 1.8 mph E2.9 kmh E 2.7 mph4.3 kmh 30.08 in1018.6 mb 0.00 in0.0 mm 0.00 in0.0 mm 0.06 in1.5 mm
09:15 PM 56.1°F13.4°C 54.7°F12.6°C 95% 1.3 mph E2.1 kmh E 2.7 mph4.3 kmh 30.08 in1018.6 mb 0.00 in0.0 mm 0.00 in0.0 mm 0.06 in1.5 mm
09:20 PM 56.1°F13.4°C 55.0°F12.8°C 96% 0.9 mph SE1.4 kmh SE 1.8 mph2.9 kmh 30.08 in1018.6 mb 0.00 in0.0 mm 0.00 in0.0 mm 0.06 in1.5 mm
09:25 PM 55.9°F13.3°C 54.8°F12.7°C 96% 0.9 mph SE1.4 kmh SE 2.2 mph3.5 kmh 30.09 in1019.0 mb 0.00 in0.0 mm 0.00 in0.0 mm 0.06 in1.5 mm
09:30 PM 55.7°F13.2°C 54.6°F12.6°C 96% 0.9 mph SE1.4 kmh SE 2.2 mph3.5 kmh 30.09 in1019.0 mb 0.00 in0.0 mm 0.00 in0.0 mm 0.06 in1.5 mm
09:35 PM 55.7°F13.2°C 54.6°F12.6°C 96% 0.9 mph SE1.4 kmh SE 3.1 mph5.0 kmh 30.09 in1019.0 mb 0.00 in0.0 mm 0.00 in0.0 mm 0.06 in1.5 mm
09:40 PM 55.7°F13.2°C 54.6°F12.6°C 96% 1.3 mph SE2.1 kmh SE 3.1 mph5.0 kmh 30.09 in1019.0 mb 0.00 in0.0 mm 0.00 in0.0 mm 0.06 in1.5 mm
09:45 PM 55.5°F13.1°C 54.4°F12.4°C 96% 1.3 mph ESE2.1 kmh ESE 2.2 mph3.5 kmh 30.09 in1019.0 mb 0.00 in0.0 mm 0.00 in0.0 mm 0.06 in1.5 mm
09:50 PM 55.4°F13.0°C 54.3°F12.4°C 96% 1.3 mph ESE2.1 kmh ESE 2.2 mph3.5 kmh 30.09 in1019.0 mb 0.00 in0.0 mm 0.00 in0.0 mm 0.06 in1.5 mm
09:55 PM 55.2°F12.9°C 54.1°F12.3°C 96% 1.3 mph ESE2.1 kmh ESE 2.2 mph3.5 kmh 30.09 in1019.0 mb 0.00 in0.0 mm 0.00 in0.0 mm 0.06 in1.5 mm
10:00 PM 55.0°F12.8°C 53.9°F12.2°C 96% 0.9 mph E1.4 kmh E 2.2 mph3.5 kmh 30.09 in1019.0 mb 0.00 in0.0 mm 0.00 in0.0 mm 0.06 in1.5 mm
10:05 PM 54.8°F12.7°C 53.7°F12.1°C 96% 0.4 mph E0.6 kmh E 2.2 mph3.5 kmh 30.09 in1019.0 mb 0.00 in0.0 mm 0.00 in0.0 mm 0.06 in1.5 mm
10:10 PM 54.6°F12.6°C 53.5°F11.9°C 96% 0.4 mph ESE0.6 kmh ESE 1.3 mph2.1 kmh 30.09 in1019.0 mb 0.00 in0.0 mm 0.00 in0.0 mm 0.06 in1.5 mm
10:15 PM 54.6°F12.6°C 53.5°F11.9°C 96% 0.4 mph E0.6 kmh E 1.3 mph2.1 kmh 30.09 in1019.0 mb 0.00 in0.0 mm 0.00 in0.0 mm 0.06 in1.5 mm
10:20 PM 54.5°F12.5°C 53.4°F11.9°C 96% 0.4 mph ENE0.6 kmh ENE 1.3 mph2.1 kmh 30.09 in1019.0 mb 0.00 in0.0 mm 0.00 in0.0 mm 0.06 in1.5 mm
10:25 PM 54.3°F12.4°C 53.2°F11.8°C 96% 0.9 mph ESE1.4 kmh ESE 1.8 mph2.9 kmh 30.09 in1019.0 mb 0.00 in0.0 mm 0.00 in0.0 mm 0.06 in1.5 mm
10:30 PM 54.3°F12.4°C 53.5°F11.9°C 97% 1.3 mph SE2.1 kmh SE 3.6 mph5.8 kmh 30.09 in1019.0 mb 0.00 in0.0 mm 0.00 in0.0 mm 0.06 in1.5 mm
10:35 PM 54.3°F12.4°C 53.5°F11.9°C 97% 1.3 mph SE2.1 kmh SE 3.6 mph5.8 kmh 30.09 in1019.0 mb 0.00 in0.0 mm 0.00 in0.0 mm 0.06 in1.5 mm
10:40 PM 54.1°F12.3°C 53.3°F11.8°C 97% 1.3 mph E2.1 kmh E 3.1 mph5.0 kmh 30.09 in1019.0 mb 0.00 in0.0 mm 0.00 in0.0 mm 0.06 in1.5 mm
10:45 PM 53.9°F12.2°C 53.1°F11.7°C 97% 1.3 mph E2.1 kmh E 3.1 mph5.0 kmh 30.09 in1019.0 mb 0.00 in0.0 mm 0.00 in0.0 mm 0.06 in1.5 mm
10:50 PM 53.7°F12.1°C 52.9°F11.6°C 97% 1.3 mph ESE2.1 kmh ESE 3.1 mph5.0 kmh 30.09 in1019.0 mb 0.00 in0.0 mm 0.00 in0.0 mm 0.06 in1.5 mm
10:55 PM 53.6°F12.0°C 52.8°F11.6°C 97% 1.3 mph E2.1 kmh E 2.2 mph3.5 kmh 30.09 in1019.0 mb 0.00 in0.0 mm 0.00 in0.0 mm 0.06 in1.5 mm
11:00 PM 53.6°F12.0°C 52.8°F11.6°C 97% 1.3 mph E2.1 kmh E 2.7 mph4.3 kmh 30.09 in1019.0 mb 0.00 in0.0 mm 0.00 in0.0 mm 0.06 in1.5 mm
11:05 PM 53.4°F11.9°C 52.6°F11.4°C 97% 1.3 mph E2.1 kmh E 2.7 mph4.3 kmh 30.09 in1019.0 mb 0.00 in0.0 mm 0.00 in0.0 mm 0.06 in1.5 mm
11:10 PM 53.2°F11.8°C 52.4°F11.3°C 97% 1.3 mph E2.1 kmh E 2.7 mph4.3 kmh 30.09 in1019.0 mb 0.00 in0.0 mm 0.00 in0.0 mm 0.06 in1.5 mm
11:15 PM 53.2°F11.8°C 52.4°F11.3°C 97% 0.9 mph ENE1.4 kmh ENE 2.7 mph4.3 kmh 30.09 in1019.0 mb 0.00 in0.0 mm 0.00 in0.0 mm 0.06 in1.5 mm
11:20 PM 53.2°F11.8°C 52.7°F11.5°C 98% 0.9 mph E1.4 kmh E 2.2 mph3.5 kmh 30.09 in1019.0 mb 0.00 in0.0 mm 0.00 in0.0 mm 0.06 in1.5 mm
11:25 PM 53.4°F11.9°C 52.9°F11.6°C 98% 1.3 mph E2.1 kmh E 2.7 mph4.3 kmh 30.09 in1019.0 mb 0.00 in0.0 mm 0.00 in0.0 mm 0.06 in1.5 mm
11:30 PM 53.2°F11.8°C 52.7°F11.5°C 98% 1.8 mph E2.9 kmh E 4.0 mph6.4 kmh 30.10 in1019.3 mb 0.00 in0.0 mm 0.00 in0.0 mm 0.06 in1.5 mm
11:35 PM 53.2°F11.8°C 52.7°F11.5°C 98% 2.2 mph E3.5 kmh E 4.0 mph6.4 kmh 30.10 in1019.3 mb 0.00 in0.0 mm 0.00 in0.0 mm 0.06 in1.5 mm
11:40 PM 53.0°F11.7°C 52.5°F11.4°C 98% 1.8 mph ENE2.9 kmh ENE 3.6 mph5.8 kmh 30.10 in1019.3 mb 0.00 in0.0 mm 0.00 in0.0 mm 0.06 in1.5 mm
11:45 PM 53.0°F11.7°C 52.5°F11.4°C 98% 1.8 mph E2.9 kmh E 3.1 mph5.0 kmh 30.10 in1019.3 mb 0.00 in0.0 mm 0.00 in0.0 mm 0.06 in1.5 mm
11:50 PM 52.8°F11.6°C 52.3°F11.3°C 98% 1.3 mph E2.1 kmh E 3.1 mph5.0 kmh 30.09 in1019.0 mb 0.00 in0.0 mm 0.00 in0.0 mm 0.06 in1.5 mm
11:55 PM 52.8°F11.6°C 52.3°F11.3°C 98% 1.8 mph E2.9 kmh E 3.6 mph5.8 kmh 30.09 in1019.0 mb 0.00 in0.0 mm 0.00 in0.0 mm 0.06 in1.5 mm